createdAt,value
2022-12-26T00:00:29.764Z,-1.12
2022-12-26T00:01:33.662Z,-1.16
2022-12-26T00:02:36.507Z,-1.19
2022-12-26T00:03:39.800Z,-1.22
2022-12-26T00:05:01.088Z,-1.25
2022-12-26T00:06:03.172Z,-1.30
2022-12-26T00:07:05.972Z,-1.32
2022-12-26T00:08:08.113Z,-1.35
2022-12-26T00:09:11.137Z,-1.36
2022-12-26T00:10:12.952Z,-1.39
2022-12-26T00:11:16.234Z,-1.41
2022-12-26T00:12:18.092Z,-1.45
2022-12-26T00:13:37.651Z,-1.51
2022-12-26T00:14:43.540Z,-1.60
2022-12-26T00:15:45.457Z,-1.62
2022-12-26T00:16:48.284Z,-1.66
2022-12-26T00:17:50.127Z,-1.71
2022-12-26T00:18:54.726Z,-1.73
2022-12-26T00:19:56.825Z,-1.77
2022-12-26T00:20:59.581Z,-1.80
2022-12-26T00:22:02.374Z,-1.83
2022-12-26T00:23:04.395Z,-1.86
2022-12-26T00:24:07.699Z,-1.88
2022-12-26T00:25:09.809Z,-1.90
2022-12-26T00:26:14.105Z,-1.94
2022-12-26T00:27:16.875Z,-1.94
2022-12-26T00:28:18.861Z,-1.94
2022-12-26T00:29:22.750Z,-1.92
2022-12-26T00:30:25.502Z,-1.93
2022-12-26T00:31:30.275Z,-1.95
2022-12-26T00:32:33.063Z,-1.95
2022-12-26T00:33:35.464Z,-1.96
2022-12-26T00:34:39.596Z,-1.97
2022-12-26T00:35:41.375Z,-1.98
2022-12-26T00:36:46.027Z,-2.01
2022-12-26T00:37:47.800Z,-2.03
2022-12-26T00:38:51.894Z,-2.07
2022-12-26T00:39:53.637Z,-2.10
2022-12-26T00:40:56.393Z,-2.13
2022-12-26T00:41:59.142Z,-2.15
2022-12-26T00:43:01.119Z,-2.18
2022-12-26T00:44:04.417Z,-2.18
2022-12-26T00:45:07.143Z,-2.18
2022-12-26T00:46:10.679Z,-2.15
2022-12-26T00:47:12.820Z,-2.14
2022-12-26T00:48:15.776Z,-2.12
2022-12-26T00:49:17.593Z,-2.11
2022-12-26T00:50:21.797Z,-2.08
2022-12-26T00:51:23.897Z,-2.05
2022-12-26T00:52:26.923Z,-2.02
2022-12-26T00:53:29.165Z,-1.98
2022-12-26T00:54:32.417Z,-1.95
2022-12-26T00:55:34.228Z,-1.93
2022-12-26T00:56:37.032Z,-1.89
2022-12-26T00:57:38.852Z,-1.84
2022-12-26T00:58:45.082Z,-1.81
2022-12-26T00:59:47.273Z,-1.77
2022-12-26T01:00:50.801Z,-1.72
2022-12-26T01:01:52.677Z,-1.66
2022-12-26T01:02:55.955Z,-1.63
2022-12-26T01:03:58.597Z,-1.59
2022-12-26T01:05:01.316Z,-1.56
2022-12-26T01:06:05.004Z,-1.51
2022-12-26T01:07:07.710Z,-1.45
2022-12-26T01:08:22.509Z,-1.43
2022-12-26T01:09:27.444Z,-1.41
2022-12-26T01:10:29.201Z,-1.40
2022-12-26T01:11:43.828Z,-1.38
2022-12-26T01:12:46.621Z,-1.35
2022-12-26T01:13:49.882Z,-1.34
2022-12-26T01:14:51.658Z,-1.30
2022-12-26T01:15:54.951Z,-1.27
2022-12-26T01:16:56.814Z,-1.23
2022-12-26T01:17:59.896Z,-1.20
2022-12-26T01:19:01.917Z,-1.18
2022-12-26T01:20:06.220Z,-1.14
2022-12-26T01:21:10.839Z,-1.13
2022-12-26T01:22:13.603Z,-1.09
2022-12-26T01:23:16.297Z,-1.07
2022-12-26T01:24:19.085Z,-1.05
2022-12-26T01:25:21.269Z,-1.02
2022-12-26T01:26:24.091Z,-0.99
2022-12-26T01:27:26.537Z,-0.97
2022-12-26T01:28:29.338Z,-0.96
2022-12-26T01:29:31.210Z,-0.93
2022-12-26T01:30:33.946Z,-0.91
2022-12-26T01:31:36.250Z,-0.87
2022-12-26T01:32:39.036Z,-0.85
2022-12-26T01:33:40.835Z,-0.83
2022-12-26T01:34:44.202Z,-0.81
2022-12-26T01:35:50.503Z,-0.81
2022-12-26T01:36:55.680Z,-0.78
2022-12-26T01:37:58.671Z,-0.77
2022-12-26T01:39:01.386Z,-0.76
2022-12-26T01:40:03.913Z,-0.72
2022-12-26T01:41:20.066Z,-0.71
2022-12-26T01:42:24.123Z,-0.68
2022-12-26T01:43:27.195Z,-0.65
2022-12-26T01:45:00.477Z,-0.62
2022-12-26T01:46:02.368Z,-0.64
2022-12-26T01:47:05.337Z,-0.64
2022-12-26T01:48:15.595Z,-0.61
2022-12-26T01:49:20.632Z,-0.59
2022-12-26T01:50:30.356Z,-0.57
2022-12-26T01:51:35.307Z,-0.55
2022-12-26T01:52:42.769Z,-0.54
2022-12-26T01:53:47.894Z,-0.52
2022-12-26T01:54:51.088Z,-0.50
2022-12-26T01:55:57.773Z,-0.48
2022-12-26T01:57:01.238Z,-0.46
2022-12-26T01:58:06.852Z,-0.42
2022-12-26T01:59:12.123Z,-0.39
2022-12-26T02:00:16.151Z,-0.36
2022-12-26T02:01:19.205Z,-0.33
2022-12-26T02:02:23.064Z,-0.32
2022-12-26T02:03:43.415Z,-0.30
2022-12-26T02:05:07.579Z,-0.29
2022-12-26T02:06:11.156Z,-0.29
2022-12-26T02:07:14.410Z,-0.28
2022-12-26T02:08:19.813Z,-0.27
2022-12-26T02:09:22.655Z,-0.26
2022-12-26T02:10:26.004Z,-0.24
2022-12-26T02:11:32.921Z,-0.24
2022-12-26T02:12:39.016Z,-0.25
2022-12-26T02:13:42.497Z,-0.26
2022-12-26T02:14:44.487Z,-0.26
2022-12-26T02:15:47.668Z,-0.27
2022-12-26T02:16:49.533Z,-0.27
2022-12-26T02:17:52.412Z,-0.26
2022-12-26T02:18:55.498Z,-0.26
2022-12-26T02:20:03.956Z,-0.25
2022-12-26T02:21:25.079Z,-0.21
2022-12-26T02:22:42.087Z,-0.20
2022-12-26T02:24:08.873Z,-0.19
2022-12-26T02:25:21.941Z,-0.21
2022-12-26T02:26:54.264Z,-0.19
2022-12-26T02:28:16.060Z,-0.20
2022-12-26T02:30:00.626Z,-0.20
2022-12-26T02:31:05.524Z,-0.24
2022-12-26T02:32:13.545Z,-0.26
2022-12-26T02:33:34.640Z,-0.27
2022-12-26T02:34:42.172Z,-0.30
2022-12-26T02:35:54.852Z,-0.30
2022-12-26T02:37:21.802Z,-0.33
2022-12-26T02:38:33.094Z,-0.38
2022-12-26T02:39:51.678Z,-0.45
2022-12-26T02:40:58.012Z,-0.51
2022-12-26T02:42:07.820Z,-0.56
2022-12-26T02:43:17.913Z,-0.63
2022-12-26T02:44:40.743Z,-0.67
2022-12-26T02:46:04.316Z,-0.73
2022-12-26T02:47:13.168Z,-0.80
2022-12-26T02:48:20.588Z,-0.84
2022-12-26T02:49:29.280Z,-0.90
2022-12-26T02:50:54.356Z,-0.93
2022-12-26T02:52:21.551Z,-0.99
2022-12-26T02:53:48.439Z,-1.05
2022-12-26T02:55:14.483Z,-1.11
2022-12-26T02:56:38.665Z,-1.18
2022-12-26T02:58:05.197Z,-1.24
2022-12-26T02:59:56.245Z,-1.30
2022-12-26T03:01:18.203Z,-1.39
2022-12-26T03:02:44.285Z,-1.42
2022-12-26T03:04:05.904Z,-1.48
2022-12-26T03:05:33.978Z,-1.49
2022-12-26T03:06:56.105Z,-1.50
2022-12-26T03:08:16.763Z,-1.52
2022-12-26T03:09:38.946Z,-1.57
2022-12-26T03:10:59.094Z,-1.60
2022-12-26T03:12:22.428Z,-1.64
2022-12-26T03:13:27.411Z,-1.67
2022-12-26T03:14:30.630Z,-1.69
2022-12-26T03:15:55.200Z,-1.71
2022-12-26T03:17:19.640Z,-1.76
2022-12-26T03:18:58.684Z,-1.80
2022-12-26T03:20:01.743Z,-1.85
2022-12-26T03:21:04.073Z,-1.89
2022-12-26T03:22:27.266Z,-1.90
2022-12-26T03:23:30.828Z,-1.96
2022-12-26T03:24:59.845Z,-1.97
2022-12-26T03:26:22.834Z,-2.03
2022-12-26T03:27:25.156Z,-2.06
2022-12-26T03:28:27.316Z,-2.08
2022-12-26T03:29:47.423Z,-2.10
2022-12-26T03:30:50.482Z,-2.13
2022-12-26T03:31:52.550Z,-2.14
2022-12-26T03:32:57.018Z,-2.12
2022-12-26T03:34:21.704Z,-2.12
2022-12-26T03:35:24.986Z,-2.12
2022-12-26T03:36:35.930Z,-2.11
2022-12-26T03:37:50.226Z,-2.10
2022-12-26T03:39:07.271Z,-2.06
2022-12-26T03:40:35.561Z,-2.01
2022-12-26T03:42:10.830Z,-1.94
2022-12-26T03:43:36.616Z,-1.90
2022-12-26T03:45:02.737Z,-1.87
2022-12-26T03:46:31.833Z,-1.83
2022-12-26T03:48:03.919Z,-1.80
2022-12-26T03:49:28.079Z,-1.77
2022-12-26T03:50:53.131Z,-1.75
2022-12-26T03:52:17.917Z,-1.72
2022-12-26T03:53:41.110Z,-1.67
2022-12-26T03:55:06.082Z,-1.64
2022-12-26T03:56:32.745Z,-1.60
2022-12-26T03:57:58.208Z,-1.56
2022-12-26T03:59:23.093Z,-1.51
2022-12-26T04:00:44.036Z,-1.47
2022-12-26T04:02:05.445Z,-1.44
2022-12-26T04:03:29.210Z,-1.40
2022-12-26T04:04:56.115Z,-1.35
2022-12-26T04:06:17.524Z,-1.33
2022-12-26T04:07:56.064Z,-1.30
2022-12-26T04:09:23.144Z,-1.28
2022-12-26T04:10:46.289Z,-1.27
2022-12-26T04:12:06.566Z,-1.27
2022-12-26T04:13:34.623Z,-1.28
2022-12-26T04:14:59.207Z,-1.27
2022-12-26T04:16:24.611Z,-1.28
2022-12-26T04:17:49.305Z,-1.29
2022-12-26T04:19:15.564Z,-1.32
2022-12-26T04:20:26.528Z,-1.38
2022-12-26T04:21:52.570Z,-1.43
2022-12-26T04:23:16.800Z,-1.49
2022-12-26T04:24:44.903Z,-1.53
2022-12-26T04:26:09.234Z,-1.57
2022-12-26T04:27:32.040Z,-1.63
2022-12-26T04:28:53.941Z,-1.68
2022-12-26T04:30:14.617Z,-1.73
2022-12-26T04:31:38.920Z,-1.77
2022-12-26T04:33:02.813Z,-1.80
2022-12-26T04:34:27.521Z,-1.82
2022-12-26T04:35:51.471Z,-1.84
2022-12-26T04:37:15.487Z,-1.87
2022-12-26T04:38:40.577Z,-1.90
2022-12-26T04:40:04.300Z,-1.96
2022-12-26T04:41:25.769Z,-1.99
2022-12-26T04:42:46.487Z,-2.03
2022-12-26T04:44:09.951Z,-2.06
2022-12-26T04:45:13.347Z,-2.08
2022-12-26T04:46:16.641Z,-2.10
2022-12-26T04:47:18.532Z,-2.13
2022-12-26T04:48:38.998Z,-2.16
2022-12-26T04:50:03.692Z,-2.22
2022-12-26T04:51:08.056Z,-2.27
2022-12-26T04:52:11.681Z,-2.28
2022-12-26T04:53:15.964Z,-2.31
2022-12-26T04:54:18.412Z,-2.32
2022-12-26T04:55:21.124Z,-2.34
2022-12-26T04:56:22.905Z,-2.36
2022-12-26T04:57:25.655Z,-2.38
2022-12-26T04:58:27.498Z,-2.39
2022-12-26T04:59:30.330Z,-2.41
2022-12-26T05:00:32.154Z,-2.43
2022-12-26T05:01:53.523Z,-2.46
2022-12-26T05:03:18.563Z,-2.53
2022-12-26T05:04:39.579Z,-2.55
2022-12-26T05:06:01.164Z,-2.59
2022-12-26T05:07:24.581Z,-2.63
2022-12-26T05:08:49.525Z,-2.64
2022-12-26T05:09:54.039Z,-2.67
2022-12-26T05:10:55.805Z,-2.67
2022-12-26T05:11:58.530Z,-2.68
2022-12-26T05:13:00.698Z,-2.70
2022-12-26T05:14:03.427Z,-2.71
2022-12-26T05:15:05.992Z,-2.72
2022-12-26T05:16:26.545Z,-2.71
2022-12-26T05:17:46.833Z,-2.69
2022-12-26T05:19:07.526Z,-2.67
2022-12-26T05:20:44.987Z,-2.69
2022-12-26T05:22:06.874Z,-2.73
2022-12-26T05:23:34.219Z,-2.76
2022-12-26T05:24:56.225Z,-2.75
2022-12-26T05:26:16.555Z,-2.73
2022-12-26T05:27:37.433Z,-2.69
2022-12-26T05:28:43.133Z,-2.64
2022-12-26T05:29:44.870Z,-2.59
2022-12-26T05:30:48.099Z,-2.54
2022-12-26T05:31:49.920Z,-2.49
2022-12-26T05:33:10.194Z,-2.45
2022-12-26T05:34:15.952Z,-2.44
2022-12-26T05:35:18.493Z,-2.45
2022-12-26T05:36:25.706Z,-2.47
2022-12-26T05:37:45.942Z,-2.49
2022-12-26T05:38:50.403Z,-2.49
2022-12-26T05:39:52.158Z,-2.49
2022-12-26T05:40:55.111Z,-2.49
2022-12-26T05:41:56.846Z,-2.47
2022-12-26T05:42:59.749Z,-2.49
2022-12-26T05:44:01.581Z,-2.49
2022-12-26T05:45:05.569Z,-2.49
2022-12-26T05:46:07.428Z,-2.48
2022-12-26T05:47:10.241Z,-2.50
2022-12-26T05:48:12.844Z,-2.53
2022-12-26T05:49:15.568Z,-2.55
2022-12-26T05:50:17.611Z,-2.56
2022-12-26T05:51:20.345Z,-2.56
2022-12-26T05:52:22.082Z,-2.56
2022-12-26T05:53:25.188Z,-2.59
2022-12-26T05:54:29.262Z,-2.58
2022-12-26T05:55:31.011Z,-2.56
2022-12-26T05:56:33.953Z,-2.56
2022-12-26T05:57:38.451Z,-2.58
2022-12-26T05:58:41.787Z,-2.55
2022-12-26T05:59:46.003Z,-2.55
2022-12-26T06:00:48.792Z,-2.54
2022-12-26T06:01:50.677Z,-2.52
2022-12-26T06:02:55.262Z,-2.48
2022-12-26T06:03:59.095Z,-2.44
2022-12-26T06:05:02.024Z,-2.39
2022-12-26T06:06:05.313Z,-2.35
2022-12-26T06:07:08.055Z,-2.31
2022-12-26T06:08:09.838Z,-2.27
2022-12-26T06:09:12.710Z,-2.23
2022-12-26T06:10:15.852Z,-2.17
2022-12-26T06:11:21.941Z,-2.15
2022-12-26T06:12:24.013Z,-2.07
2022-12-26T06:13:26.844Z,-2.04
2022-12-26T06:14:28.623Z,-1.99
2022-12-26T06:15:33.127Z,-1.95
2022-12-26T06:16:35.890Z,-1.92
2022-12-26T06:17:37.770Z,-1.90
2022-12-26T06:18:40.961Z,-1.89
2022-12-26T06:19:46.895Z,-1.89
2022-12-26T06:20:49.928Z,-1.93
2022-12-26T06:21:52.004Z,-1.92
2022-12-26T06:22:54.754Z,-1.93
2022-12-26T06:23:56.569Z,-1.95
2022-12-26T06:24:59.361Z,-1.96
2022-12-26T06:26:02.619Z,-1.99
2022-12-26T06:27:07.120Z,-1.99
2022-12-26T06:28:09.804Z,-1.96
2022-12-26T06:29:12.613Z,-1.90
2022-12-26T06:30:14.413Z,-1.84
2022-12-26T06:31:21.242Z,-1.75
2022-12-26T06:32:23.656Z,-1.70
2022-12-26T06:33:26.384Z,-1.66
2022-12-26T06:34:28.220Z,-1.68
2022-12-26T06:35:31.047Z,-1.71
2022-12-26T06:36:33.761Z,-1.75
2022-12-26T06:37:35.852Z,-1.79
2022-12-26T06:38:38.718Z,-1.80
2022-12-26T06:39:40.533Z,-1.84
2022-12-26T06:40:43.854Z,-1.87
2022-12-26T06:41:47.123Z,-1.90
2022-12-26T06:42:49.865Z,-1.93
2022-12-26T06:43:52.429Z,-1.94
2022-12-26T06:44:55.129Z,-1.93
2022-12-26T06:45:57.187Z,-1.94
2022-12-26T06:47:00.327Z,-1.94
2022-12-26T06:48:02.693Z,-1.94
2022-12-26T06:49:06.553Z,-1.96
2022-12-26T06:50:09.194Z,-1.94
2022-12-26T06:51:13.730Z,-1.95
2022-12-26T06:52:15.495Z,-1.98
2022-12-26T06:53:18.652Z,-1.99
2022-12-26T06:54:21.486Z,-1.99
2022-12-26T06:55:23.339Z,-1.95
2022-12-26T06:56:27.844Z,-1.92
2022-12-26T06:57:30.978Z,-1.92
2022-12-26T06:58:33.709Z,-1.88
2022-12-26T06:59:35.658Z,-1.85
2022-12-26T07:00:38.422Z,-1.79
2022-12-26T07:01:40.481Z,-1.77
2022-12-26T07:02:43.585Z,-1.73
2022-12-26T07:03:51.699Z,-1.68
2022-12-26T07:04:54.757Z,-1.64
2022-12-26T07:05:56.606Z,-1.60
2022-12-26T07:06:59.358Z,-1.53
2022-12-26T07:08:01.131Z,-1.45
2022-12-26T07:09:06.179Z,-1.39
2022-12-26T07:10:08.658Z,-1.32
2022-12-26T07:11:14.717Z,-1.28
2022-12-26T07:12:20.726Z,-1.25
2022-12-26T07:13:25.326Z,-1.21
2022-12-26T07:14:27.134Z,-1.13
2022-12-26T07:15:30.630Z,-1.12
2022-12-26T07:16:34.569Z,-1.05
2022-12-26T07:17:38.109Z,-1.02
2022-12-26T07:18:40.354Z,-0.98
2022-12-26T07:19:43.065Z,-0.93
2022-12-26T07:20:44.935Z,-0.88
2022-12-26T07:21:48.104Z,-0.85
2022-12-26T07:22:50.306Z,-0.78
2022-12-26T07:23:54.301Z,-0.78
2022-12-26T07:24:56.198Z,-0.74
2022-12-26T07:25:59.939Z,-0.71
2022-12-26T07:27:02.715Z,-0.67
2022-12-26T07:28:05.070Z,-0.63
2022-12-26T07:29:11.011Z,-0.60
2022-12-26T07:30:13.302Z,-0.57
2022-12-26T07:31:17.330Z,-0.55
2022-12-26T07:32:19.200Z,-0.51
2022-12-26T07:33:22.434Z,-0.47
2022-12-26T07:34:31.093Z,-0.43
2022-12-26T07:35:35.960Z,-0.39
2022-12-26T07:36:37.776Z,-0.33
2022-12-26T07:37:40.572Z,-0.24
2022-12-26T07:38:43.495Z,-0.06
2022-12-26T07:39:46.208Z,0.13
2022-12-26T07:40:48.117Z,0.32
2022-12-26T07:41:58.817Z,0.51
2022-12-26T07:43:01.553Z,0.69
2022-12-26T07:44:03.567Z,0.85
2022-12-26T07:45:09.220Z,1.03
2022-12-26T07:46:11.151Z,1.17
2022-12-26T07:47:14.081Z,1.33
2022-12-26T07:48:15.861Z,1.51
2022-12-26T07:49:19.158Z,1.71
2022-12-26T07:50:20.986Z,1.91
2022-12-26T07:51:23.924Z,2.11
2022-12-26T07:52:25.678Z,2.28
2022-12-26T07:53:28.460Z,2.46
2022-12-26T07:54:32.148Z,2.61
2022-12-26T07:55:34.873Z,2.71
2022-12-26T07:56:36.891Z,2.84
2022-12-26T07:57:48.581Z,2.94
2022-12-26T07:58:51.803Z,3.03
2022-12-26T07:59:54.994Z,3.13
2022-12-26T08:01:00.858Z,3.21
2022-12-26T08:02:05.082Z,3.28
2022-12-26T08:03:09.399Z,3.36
2022-12-26T08:04:12.618Z,3.44
2022-12-26T08:05:14.688Z,3.52
2022-12-26T08:06:17.858Z,3.59
2022-12-26T08:07:19.686Z,3.67
2022-12-26T08:08:22.391Z,3.74
2022-12-26T08:09:24.210Z,3.80
2022-12-26T08:10:27.036Z,3.83
2022-12-26T08:11:29.635Z,3.88
2022-12-26T08:12:33.325Z,3.93
2022-12-26T08:13:35.334Z,3.98
2022-12-26T08:14:38.695Z,4.05
2022-12-26T08:15:41.483Z,4.10
2022-12-26T08:16:51.375Z,4.12
2022-12-26T08:17:53.272Z,4.13
2022-12-26T08:18:56.105Z,4.16
2022-12-26T08:19:57.860Z,4.21
2022-12-26T08:21:00.838Z,4.24
2022-12-26T08:22:03.028Z,4.28
2022-12-26T08:23:05.737Z,4.29
2022-12-26T08:24:08.617Z,4.34
2022-12-26T08:25:11.916Z,4.39
2022-12-26T08:26:20.842Z,4.46
2022-12-26T08:27:22.656Z,4.52
2022-12-26T08:28:25.596Z,4.56
2022-12-26T08:29:27.468Z,4.58
2022-12-26T08:30:30.419Z,4.64
2022-12-26T08:31:32.227Z,4.66
2022-12-26T08:32:38.300Z,4.69
2022-12-26T08:33:42.879Z,4.72
2022-12-26T08:34:45.934Z,4.74
2022-12-26T08:35:47.810Z,4.77
2022-12-26T08:36:51.449Z,4.80
2022-12-26T08:37:53.249Z,4.83
2022-12-26T08:38:57.066Z,4.84
2022-12-26T08:39:58.814Z,4.84
2022-12-26T08:41:01.804Z,4.87
2022-12-26T08:42:03.893Z,4.89
2022-12-26T08:43:45.052Z,4.91
2022-12-26T08:44:30.059Z,4.94
2022-12-26T08:45:31.947Z,4.95
2022-12-26T08:46:34.903Z,4.99
2022-12-26T08:47:38.091Z,5.03
2022-12-26T08:48:41.583Z,5.05
2022-12-26T08:49:43.491Z,5.08
2022-12-26T08:50:46.520Z,5.09
2022-12-26T08:51:48.584Z,5.09
2022-12-26T08:52:51.337Z,5.11
2022-12-26T08:53:55.828Z,5.13
2022-12-26T08:54:58.041Z,5.15
2022-12-26T08:56:01.130Z,5.19
2022-12-26T08:57:04.350Z,5.20
2022-12-26T08:58:06.088Z,5.22
2022-12-26T08:59:09.196Z,5.24
2022-12-26T09:00:12.307Z,5.28
2022-12-26T09:01:16.522Z,5.30
2022-12-26T09:02:18.742Z,5.32
2022-12-26T09:03:23.353Z,5.35
2022-12-26T09:04:28.464Z,5.39
2022-12-26T09:05:31.560Z,5.42
2022-12-26T09:06:53.175Z,5.43
2022-12-26T09:07:55.036Z,5.46
2022-12-26T09:08:57.770Z,5.48
2022-12-26T09:09:59.522Z,5.52
2022-12-26T09:11:06.976Z,5.55
2022-12-26T09:12:08.743Z,5.58
2022-12-26T09:13:11.713Z,5.60
2022-12-26T09:14:13.929Z,5.66
2022-12-26T09:15:17.058Z,5.67
2022-12-26T09:16:20.313Z,5.69
2022-12-26T09:17:23.127Z,5.70
2022-12-26T09:18:26.320Z,5.72
2022-12-26T09:19:29.758Z,5.75
2022-12-26T09:20:33.042Z,5.75
2022-12-26T09:21:35.783Z,5.78
2022-12-26T09:22:52.479Z,5.79
2022-12-26T09:24:01.097Z,5.81
2022-12-26T09:25:03.264Z,5.83
2022-12-26T09:26:07.208Z,5.83
2022-12-26T09:27:09.268Z,5.85
2022-12-26T09:28:11.987Z,5.86
2022-12-26T09:29:13.987Z,5.87
2022-12-26T09:30:17.450Z,5.88
2022-12-26T09:31:21.809Z,5.88
2022-12-26T09:32:24.542Z,5.89
2022-12-26T09:33:28.778Z,5.91
2022-12-26T09:34:30.627Z,5.92
2022-12-26T09:35:33.807Z,5.95
2022-12-26T09:36:38.245Z,5.95
2022-12-26T09:37:41.560Z,5.95
2022-12-26T09:38:43.852Z,5.96
2022-12-26T09:39:47.330Z,5.97
2022-12-26T09:40:59.122Z,5.97
2022-12-26T09:42:08.553Z,5.98
2022-12-26T09:43:19.737Z,5.99
2022-12-26T09:44:26.999Z,5.99
2022-12-26T09:45:42.805Z,6.00
2022-12-26T09:46:51.736Z,6.00
2022-12-26T09:48:00.937Z,6.01
2022-12-26T09:49:09.606Z,6.03
2022-12-26T09:50:13.662Z,6.04
2022-12-26T09:51:16.421Z,6.05
2022-12-26T09:52:20.767Z,6.08
2022-12-26T09:53:27.379Z,6.11
2022-12-26T09:54:32.004Z,6.14
2022-12-26T09:55:41.514Z,6.15
2022-12-26T09:58:16.722Z,6.13
2022-12-26T09:59:21.408Z,6.11
2022-12-26T10:00:28.480Z,6.09
2022-12-26T10:01:35.835Z,6.09
2022-12-26T10:02:37.975Z,6.08
2022-12-26T10:03:43.410Z,6.06
2022-12-26T10:04:47.055Z,6.06
2022-12-26T10:06:01.307Z,6.04
2022-12-26T10:07:10.218Z,6.01
2022-12-26T10:08:22.535Z,5.97
2022-12-26T10:09:43.537Z,5.94
2022-12-26T10:10:49.360Z,5.92
2022-12-26T10:12:01.705Z,5.89
2022-12-26T10:13:11.829Z,5.88
2022-12-26T10:14:21.986Z,5.90
2022-12-26T10:15:36.010Z,5.91
2022-12-26T10:16:49.173Z,5.92
2022-12-26T10:18:00.188Z,5.92
2022-12-26T10:19:10.858Z,5.94
2022-12-26T10:20:20.022Z,5.95
2022-12-26T10:21:35.518Z,5.97
2022-12-26T10:23:04.890Z,5.98
2022-12-26T10:24:13.273Z,5.98
2022-12-26T10:25:17.956Z,6.00
2022-12-26T10:26:24.396Z,6.01
2022-12-26T10:27:28.315Z,6.03
2022-12-26T10:28:34.766Z,6.06
2022-12-26T10:29:40.125Z,6.08
2022-12-26T10:30:42.308Z,6.10
2022-12-26T10:31:47.720Z,6.12
2022-12-26T10:32:51.794Z,6.13
2022-12-26T10:33:59.720Z,6.15
2022-12-26T10:35:16.417Z,6.17
2022-12-26T10:36:28.145Z,6.19
2022-12-26T10:37:33.854Z,6.19
2022-12-26T10:38:38.938Z,6.21
2022-12-26T10:39:44.357Z,6.22
2022-12-26T10:40:48.416Z,6.23
2022-12-26T10:41:53.215Z,6.25
2022-12-26T10:42:56.682Z,6.25
2022-12-26T10:43:59.871Z,6.26
2022-12-26T10:45:02.290Z,6.27
2022-12-26T10:46:20.749Z,6.30
2022-12-26T10:47:26.858Z,6.28
2022-12-26T10:48:29.271Z,6.30
2022-12-26T10:49:32.055Z,6.30
2022-12-26T10:50:35.873Z,6.31
2022-12-26T10:51:39.153Z,6.33
2022-12-26T10:52:42.063Z,6.35
2022-12-26T10:53:48.939Z,6.37
2022-12-26T10:55:29.540Z,6.37
2022-12-26T10:56:18.632Z,6.38
2022-12-26T10:57:21.030Z,6.43
2022-12-26T10:58:27.306Z,6.45
2022-12-26T10:59:40.537Z,6.50
2022-12-26T11:00:43.500Z,6.52
2022-12-26T11:01:47.775Z,6.56
2022-12-26T11:03:03.740Z,6.62
2022-12-26T11:04:18.928Z,6.67
2022-12-26T11:05:56.969Z,6.68
2022-12-26T11:06:52.469Z,6.69
2022-12-26T11:07:55.947Z,6.68
2022-12-26T11:09:00.260Z,6.68
2022-12-26T11:10:03.935Z,6.69
2022-12-26T11:11:09.603Z,6.71
2022-12-26T11:12:20.572Z,6.72
2022-12-26T11:13:24.283Z,6.71
2022-12-26T11:14:35.441Z,6.72
2022-12-26T11:15:40.903Z,6.73
2022-12-26T11:16:43.340Z,6.72
2022-12-26T11:17:50.435Z,6.73
2022-12-26T11:18:53.476Z,6.71
2022-12-26T11:20:23.816Z,6.72
2022-12-26T11:21:28.684Z,6.71
2022-12-26T11:22:31.830Z,6.71
2022-12-26T11:23:34.578Z,6.72
2022-12-26T11:24:36.830Z,6.72
2022-12-26T11:25:49.123Z,6.73
2022-12-26T11:26:52.020Z,6.74
2022-12-26T11:27:56.302Z,6.77
2022-12-26T11:29:07.976Z,6.79
2022-12-26T11:30:29.970Z,6.79
2022-12-26T11:31:33.388Z,6.78
2022-12-26T11:32:35.194Z,6.78
2022-12-26T11:33:43.090Z,6.74
2022-12-26T11:34:46.947Z,6.74
2022-12-26T11:35:53.144Z,6.73
2022-12-26T11:36:56.100Z,6.71
2022-12-26T11:37:59.673Z,6.70
2022-12-26T11:39:04.032Z,6.67
2022-12-26T11:40:06.911Z,6.64
2022-12-26T11:41:31.306Z,6.62
2022-12-26T11:42:34.029Z,6.59
2022-12-26T11:43:36.023Z,6.58
2022-12-26T11:44:44.043Z,6.59
2022-12-26T11:45:49.917Z,6.57
2022-12-26T11:46:56.691Z,6.59
2022-12-26T11:48:00.683Z,6.61
2022-12-26T11:49:04.589Z,6.67
2022-12-26T11:50:08.818Z,6.72
2022-12-26T11:51:12.167Z,6.78
2022-12-26T11:52:35.509Z,6.83
2022-12-26T11:53:38.612Z,6.86
2022-12-26T11:54:49.767Z,6.88
2022-12-26T11:55:59.953Z,6.91
2022-12-26T11:57:20.460Z,6.91
2022-12-26T11:58:23.743Z,6.90
2022-12-26T11:59:26.491Z,6.90
2022-12-26T12:00:29.109Z,6.91
2022-12-26T12:01:31.892Z,6.93
2022-12-26T12:02:41.036Z,6.95
2022-12-26T12:03:49.620Z,6.96
2022-12-26T12:04:54.091Z,7.00
2022-12-26T12:06:03.515Z,7.02
2022-12-26T12:07:10.613Z,7.04
2022-12-26T12:08:22.893Z,7.07
2022-12-26T12:09:32.684Z,7.09
2022-12-26T12:10:58.740Z,7.13
2022-12-26T12:12:06.147Z,7.13
2022-12-26T12:13:13.992Z,7.15
2022-12-26T12:14:29.359Z,7.16
2022-12-26T12:15:34.427Z,7.21
2022-12-26T12:16:45.447Z,7.22
2022-12-26T12:17:52.999Z,7.23
2022-12-26T12:19:00.839Z,7.23
2022-12-26T12:20:25.137Z,7.23
2022-12-26T12:21:33.562Z,7.25
2022-12-26T12:22:51.240Z,7.23
2022-12-26T12:24:04.648Z,7.27
2022-12-26T12:25:48.190Z,7.29
2022-12-26T12:27:01.616Z,7.30
2022-12-26T12:28:17.608Z,7.36
2022-12-26T12:29:36.701Z,7.51
2022-12-26T12:30:44.422Z,7.63
2022-12-26T12:31:55.091Z,7.73
2022-12-26T12:33:12.617Z,7.80
2022-12-26T12:34:23.552Z,7.83
2022-12-26T12:35:35.665Z,7.85
2022-12-26T12:36:43.439Z,7.90
2022-12-26T12:38:04.552Z,7.90
2022-12-26T12:39:13.021Z,7.90
2022-12-26T12:40:26.275Z,7.89
2022-12-26T12:42:10.234Z,7.87
2022-12-26T12:43:17.153Z,7.79
2022-12-26T12:44:22.943Z,7.75
2022-12-26T12:45:32.378Z,7.72
2022-12-26T12:46:41.686Z,7.69
2022-12-26T12:47:51.823Z,7.63
2022-12-26T12:49:05.113Z,7.62
2022-12-26T12:50:15.074Z,7.58
2022-12-26T12:51:23.960Z,7.54
2022-12-26T12:52:37.957Z,7.51
2022-12-26T12:53:54.384Z,7.51
2022-12-26T12:55:21.705Z,7.48
2022-12-26T12:56:28.497Z,7.47
2022-12-26T12:57:38.078Z,7.47
2022-12-26T12:58:44.533Z,7.46
2022-12-26T12:59:54.337Z,7.48
2022-12-26T13:01:00.799Z,7.48
2022-12-26T13:02:10.274Z,7.48
2022-12-26T13:03:23.727Z,7.48
2022-12-26T13:04:29.615Z,7.49
2022-12-26T13:05:40.690Z,7.49
2022-12-26T13:06:46.486Z,7.49
2022-12-26T13:07:57.048Z,7.47
2022-12-26T13:09:01.750Z,7.49
2022-12-26T13:10:06.696Z,7.50
2022-12-26T13:11:12.364Z,7.49
2022-12-26T13:12:18.937Z,7.50
2022-12-26T13:13:29.392Z,7.51
2022-12-26T13:14:34.676Z,7.53
2022-12-26T13:15:38.643Z,7.52
2022-12-26T13:16:44.225Z,7.53
2022-12-26T13:17:52.127Z,7.54
2022-12-26T13:18:57.387Z,7.56
2022-12-26T13:20:03.098Z,7.57
2022-12-26T13:21:07.504Z,7.58
2022-12-26T13:22:14.187Z,7.60
2022-12-26T13:23:37.864Z,7.59
2022-12-26T13:24:43.279Z,7.57
2022-12-26T13:25:47.988Z,7.57
2022-12-26T13:26:57.988Z,7.60
2022-12-26T13:28:09.997Z,7.60
2022-12-26T13:29:18.013Z,7.63
2022-12-26T13:30:19.889Z,7.64
2022-12-26T13:31:22.959Z,7.65
2022-12-26T13:32:27.673Z,7.65
2022-12-26T13:33:30.351Z,7.66
2022-12-26T13:34:33.264Z,7.67
2022-12-26T13:35:52.418Z,7.67
2022-12-26T13:36:56.766Z,7.65
2022-12-26T13:37:58.822Z,7.65
2022-12-26T13:39:35.846Z,7.63
2022-12-26T13:40:38.370Z,7.61
2022-12-26T13:42:05.003Z,7.61
2022-12-26T13:43:32.469Z,7.58
2022-12-26T13:44:36.707Z,7.56
2022-12-26T13:45:50.521Z,7.56
2022-12-26T13:46:57.963Z,7.55
2022-12-26T13:47:59.796Z,7.55
2022-12-26T13:49:02.648Z,7.54
2022-12-26T13:50:48.523Z,7.55
2022-12-26T13:52:01.342Z,7.52
2022-12-26T13:53:03.365Z,7.48
2022-12-26T13:54:11.890Z,7.48
2022-12-26T13:55:43.466Z,7.47
2022-12-26T13:57:10.551Z,7.46
2022-12-26T13:58:30.865Z,7.43
2022-12-26T13:59:38.851Z,7.43
2022-12-26T14:00:43.770Z,7.41
2022-12-26T14:01:55.815Z,7.41
2022-12-26T14:03:32.021Z,7.40
2022-12-26T14:04:41.444Z,7.36
2022-12-26T14:05:55.149Z,7.37
2022-12-26T14:07:07.449Z,7.37
2022-12-26T14:08:16.843Z,7.39
2022-12-26T14:09:34.216Z,7.40
2022-12-26T14:10:43.375Z,7.42
2022-12-26T14:11:57.344Z,7.45
2022-12-26T14:13:06.152Z,7.44
2022-12-26T14:14:16.480Z,7.45
2022-12-26T14:15:39.298Z,7.45
2022-12-26T14:16:46.503Z,7.43
2022-12-26T14:17:55.325Z,7.42
2022-12-26T14:19:02.779Z,7.41
2022-12-26T14:20:16.564Z,7.41
2022-12-26T14:21:38.814Z,7.39
2022-12-26T14:22:45.993Z,7.38
2022-12-26T14:23:54.428Z,7.38
2022-12-26T14:25:04.508Z,7.37
2022-12-26T14:26:19.459Z,7.36
2022-12-26T14:27:32.269Z,7.33
2022-12-26T14:28:49.293Z,7.34
2022-12-26T14:29:57.031Z,7.35
2022-12-26T14:31:14.302Z,7.33
2022-12-26T14:32:28.729Z,7.30
2022-12-26T14:33:35.964Z,7.27
2022-12-26T14:34:49.942Z,7.23
2022-12-26T14:36:03.672Z,7.19
2022-12-26T14:37:16.417Z,7.14
2022-12-26T14:38:26.123Z,7.07
2022-12-26T14:39:35.107Z,7.01
2022-12-26T14:40:39.600Z,6.95
2022-12-26T14:42:35.614Z,6.85
2022-12-26T14:43:38.531Z,6.70
2022-12-26T14:44:44.900Z,6.59
2022-12-26T14:45:50.650Z,6.51
2022-12-26T14:47:01.914Z,6.43
2022-12-26T14:48:44.648Z,6.33
2022-12-26T14:49:48.554Z,6.24
2022-12-26T14:50:51.491Z,6.19
2022-12-26T14:51:54.463Z,6.16
2022-12-26T14:53:17.961Z,6.11
2022-12-26T14:54:39.190Z,6.09
2022-12-26T14:55:51.435Z,6.06
2022-12-26T14:56:54.876Z,6.03
2022-12-26T14:57:58.078Z,6.01
2022-12-26T14:59:24.772Z,5.99
2022-12-26T15:00:37.148Z,5.96
2022-12-26T15:01:50.312Z,5.94